createdAt,value
2022-11-25T00:01:38.964Z,19.77
2022-11-25T00:04:24.141Z,19.76
2022-11-25T00:07:09.461Z,19.76
2022-11-25T00:09:54.706Z,19.77
2022-11-25T00:12:40.065Z,19.73
2022-11-25T00:15:25.464Z,19.73
2022-11-25T00:18:10.739Z,19.75
2022-11-25T00:20:56.048Z,19.73
2022-11-25T00:23:41.385Z,19.72
2022-11-25T00:26:28.939Z,19.71
2022-11-25T00:29:14.516Z,19.70
2022-11-25T00:32:00.322Z,19.70
2022-11-25T00:34:45.606Z,19.70
2022-11-25T00:37:32.352Z,19.68
2022-11-25T00:40:17.725Z,19.68
2022-11-25T00:43:22.188Z,19.68
2022-11-25T00:46:07.596Z,19.67
2022-11-25T00:48:52.899Z,19.66
2022-11-25T00:51:38.505Z,19.66
2022-11-25T00:54:23.904Z,19.66
2022-11-25T00:57:09.148Z,19.66
2022-11-25T00:59:54.427Z,19.65
2022-11-25T01:02:39.853Z,19.64
2022-11-25T01:05:25.474Z,19.63
2022-11-25T01:08:12.330Z,19.63
2022-11-25T01:11:05.746Z,19.63
2022-11-25T01:13:59.343Z,19.61
2022-11-25T01:16:46.478Z,19.63
2022-11-25T01:19:31.823Z,19.62
2022-11-25T01:22:17.991Z,19.61
2022-11-25T01:25:03.294Z,19.61
2022-11-25T01:27:48.403Z,19.60
2022-11-25T01:30:38.288Z,19.60
2022-11-25T01:33:26.377Z,19.59
2022-11-25T01:36:14.195Z,19.59
2022-11-25T01:39:01.451Z,19.58
2022-11-25T01:41:47.168Z,19.57
2022-11-25T01:44:33.170Z,19.58
2022-11-25T01:47:23.530Z,19.58
2022-11-25T01:50:12.707Z,19.58
2022-11-25T01:52:58.543Z,19.57
2022-11-25T01:55:50.563Z,19.56
2022-11-25T01:58:38.781Z,19.56
2022-11-25T02:01:24.654Z,19.55
2022-11-25T02:04:13.153Z,19.56
2022-11-25T02:07:05.125Z,19.56
2022-11-25T02:09:51.242Z,19.55
2022-11-25T02:12:40.495Z,19.55
2022-11-25T02:15:28.453Z,19.55
2022-11-25T02:18:14.021Z,19.54
2022-11-25T02:20:59.267Z,19.54
2022-11-25T02:24:08.975Z,19.53
2022-11-25T02:26:54.567Z,19.53
2022-11-25T02:29:41.212Z,19.53
2022-11-25T02:32:26.764Z,19.52
2022-11-25T02:35:21.467Z,19.51
2022-11-25T02:38:24.029Z,19.50
2022-11-25T02:41:17.303Z,19.49
2022-11-25T02:44:06.521Z,19.47
2022-11-25T02:46:52.439Z,19.49
2022-11-25T02:49:37.778Z,19.49
2022-11-25T02:52:24.066Z,19.48
2022-11-25T02:55:09.599Z,19.48
2022-11-25T02:57:55.109Z,19.48
2022-11-25T03:00:42.601Z,19.48
2022-11-25T03:03:28.287Z,19.47
2022-11-25T03:06:13.695Z,19.47
2022-11-25T03:08:59.156Z,19.47
2022-11-25T03:12:03.959Z,19.47
2022-11-25T03:14:49.127Z,19.48
2022-11-25T03:17:34.615Z,19.47
2022-11-25T03:20:20.398Z,19.48
2022-11-25T03:23:06.683Z,19.48
2022-11-25T03:25:52.320Z,19.48
2022-11-25T03:28:38.193Z,19.48
2022-11-25T03:31:23.575Z,19.48
2022-11-25T03:34:09.350Z,19.49
2022-11-25T03:36:55.242Z,19.49
2022-11-25T03:39:43.413Z,19.47
2022-11-25T03:42:29.743Z,19.48
2022-11-25T03:45:15.771Z,19.49
2022-11-25T03:48:03.434Z,19.49
2022-11-25T03:50:49.482Z,19.49
2022-11-25T03:53:35.171Z,19.50
2022-11-25T03:56:23.243Z,19.50
2022-11-25T03:59:09.099Z,19.49
2022-11-25T04:01:54.887Z,19.49
2022-11-25T04:04:41.493Z,19.49
2022-11-25T04:07:27.276Z,19.51
2022-11-25T04:10:14.024Z,19.52
2022-11-25T04:13:01.208Z,19.52
2022-11-25T04:15:57.034Z,19.53
2022-11-25T04:18:42.553Z,19.51
2022-11-25T04:21:28.070Z,19.52
2022-11-25T04:24:15.983Z,19.52
2022-11-25T04:27:02.441Z,19.53
2022-11-25T04:29:47.915Z,19.53
2022-11-25T04:32:33.969Z,19.52
2022-11-25T04:35:19.439Z,19.52
2022-11-25T04:38:09.792Z,19.51
2022-11-25T04:40:56.505Z,19.52
2022-11-25T04:43:42.279Z,19.52
2022-11-25T04:46:38.210Z,19.52
2022-11-25T04:49:23.770Z,19.51
2022-11-25T04:52:08.948Z,19.52
2022-11-25T04:54:55.187Z,19.51
2022-11-25T04:57:41.412Z,19.51
2022-11-25T05:00:28.316Z,19.49
2022-11-25T05:03:13.880Z,19.49
2022-11-25T05:05:59.072Z,19.50
2022-11-25T05:08:44.982Z,19.50
2022-11-25T05:11:30.795Z,19.53
2022-11-25T05:14:15.996Z,19.56
2022-11-25T05:17:08.362Z,19.60
2022-11-25T05:19:54.549Z,19.64
2022-11-25T05:22:40.687Z,19.66
2022-11-25T05:25:30.672Z,19.65
2022-11-25T05:28:46.737Z,19.65
2022-11-25T05:31:33.400Z,19.66
2022-11-25T05:34:19.113Z,19.69
2022-11-25T05:37:05.452Z,19.75
2022-11-25T05:39:53.579Z,19.77
2022-11-25T05:43:01.229Z,19.83
2022-11-25T05:45:48.722Z,19.86
2022-11-25T05:48:34.107Z,19.90
2022-11-25T05:51:19.524Z,19.92
2022-11-25T05:54:05.044Z,19.93
2022-11-25T05:56:53.891Z,19.93
2022-11-25T05:59:59.027Z,19.96
2022-11-25T06:03:04.656Z,19.94
2022-11-25T06:05:50.411Z,19.94
2022-11-25T06:08:38.419Z,19.96
2022-11-25T06:11:25.602Z,19.96
2022-11-25T06:14:10.740Z,19.94
2022-11-25T06:16:57.072Z,19.93
2022-11-25T06:19:53.476Z,19.92
2022-11-25T06:22:38.864Z,19.92
2022-11-25T06:25:25.670Z,19.90
2022-11-25T06:28:13.185Z,19.92
2022-11-25T06:31:07.849Z,19.92
2022-11-25T06:33:58.995Z,19.90
2022-11-25T06:36:44.367Z,19.90
2022-11-25T06:39:29.625Z,19.90
2022-11-25T06:42:14.822Z,19.90
2022-11-25T06:45:00.246Z,19.88
2022-11-25T06:47:45.732Z,19.89
2022-11-25T06:50:31.427Z,19.89
2022-11-25T06:53:21.188Z,19.89
2022-11-25T06:56:13.806Z,19.91
2022-11-25T06:58:59.254Z,19.91
2022-11-25T07:01:44.660Z,19.87
2022-11-25T07:04:30.780Z,19.84
2022-11-25T07:07:16.094Z,19.84
2022-11-25T07:10:01.463Z,19.84
2022-11-25T07:12:46.688Z,19.80
2022-11-25T07:15:34.773Z,19.80
2022-11-25T07:18:20.372Z,19.80
2022-11-25T07:21:07.209Z,19.81
2022-11-25T07:23:52.994Z,19.82
2022-11-25T07:26:40.284Z,19.82
2022-11-25T07:32:33.470Z,19.80
2022-11-25T07:35:18.895Z,19.80
2022-11-25T07:38:04.315Z,19.79
2022-11-25T07:40:50.733Z,19.78
2022-11-25T07:43:36.580Z,19.77
2022-11-25T07:46:27.050Z,19.78
2022-11-25T07:49:15.468Z,19.81
2022-11-25T07:52:02.336Z,19.82
2022-11-25T07:54:47.828Z,19.82
2022-11-25T07:57:32.918Z,19.84
2022-11-25T08:00:18.699Z,19.83
2022-11-25T08:03:03.928Z,19.83
2022-11-25T08:05:49.082Z,19.83
2022-11-25T08:08:35.005Z,19.83
2022-11-25T08:11:23.580Z,19.83
2022-11-25T08:14:10.340Z,19.84
2022-11-25T08:16:55.849Z,19.84
2022-11-25T08:19:41.290Z,19.84
2022-11-25T08:22:26.790Z,19.84
2022-11-25T08:25:12.320Z,19.85
2022-11-25T08:28:01.184Z,19.84
2022-11-25T08:30:46.787Z,19.83
2022-11-25T08:33:32.785Z,19.86
2022-11-25T08:36:19.957Z,19.85
2022-11-25T08:39:28.864Z,19.84
2022-11-25T08:42:12.765Z,19.85
2022-11-25T08:44:57.987Z,19.84
2022-11-25T08:47:43.371Z,19.86
2022-11-25T08:50:28.655Z,19.85
2022-11-25T08:53:14.842Z,19.87
2022-11-25T08:56:00.286Z,19.87
2022-11-25T08:58:45.411Z,19.85
2022-11-25T09:01:31.436Z,19.84
2022-11-25T09:04:17.053Z,19.85
2022-11-25T09:07:04.905Z,19.84
2022-11-25T09:09:50.522Z,19.84
2022-11-25T09:12:36.067Z,19.84
2022-11-25T09:15:21.749Z,19.85
2022-11-25T09:18:08.841Z,19.86
2022-11-25T09:20:54.337Z,19.86
2022-11-25T09:23:39.951Z,19.85
2022-11-25T09:26:31.265Z,19.84
2022-11-25T09:29:16.691Z,19.85
2022-11-25T09:32:02.078Z,19.86
2022-11-25T09:34:47.472Z,19.85
2022-11-25T09:37:32.834Z,19.85
2022-11-25T09:40:47.189Z,19.83
2022-11-25T09:43:57.073Z,19.85
2022-11-25T09:46:52.687Z,19.83
2022-11-25T09:49:48.956Z,19.83
2022-11-25T09:52:45.989Z,19.82
2022-11-25T09:55:39.887Z,19.81
2022-11-25T09:58:34.383Z,19.80
2022-11-25T10:01:25.128Z,19.81
2022-11-25T10:04:17.572Z,19.81
2022-11-25T10:07:04.358Z,19.79
2022-11-25T10:09:50.482Z,19.79
2022-11-25T10:12:42.644Z,19.79
2022-11-25T10:15:34.316Z,19.79
2022-11-25T10:18:31.938Z,19.81
2022-11-25T10:21:17.429Z,19.82
2022-11-25T10:24:05.045Z,19.82
2022-11-25T10:27:07.734Z,19.79
2022-11-25T10:30:05.175Z,19.81
2022-11-25T10:33:05.753Z,19.82
2022-11-25T10:35:53.225Z,19.84
2022-11-25T10:38:56.682Z,19.84
2022-11-25T10:41:56.882Z,19.82
2022-11-25T10:44:42.356Z,19.83
2022-11-25T10:47:36.344Z,19.82
2022-11-25T10:50:25.083Z,19.84
2022-11-25T10:53:20.156Z,19.83
2022-11-25T10:56:12.675Z,19.82
2022-11-25T10:58:58.046Z,19.85
2022-11-25T11:01:43.447Z,19.85
2022-11-25T11:04:28.670Z,19.85
2022-11-25T11:07:14.287Z,19.85
2022-11-25T11:10:14.645Z,19.84
2022-11-25T11:13:18.125Z,19.83
2022-11-25T11:16:03.797Z,19.84
2022-11-25T11:18:51.083Z,19.84
2022-11-25T11:21:41.798Z,19.84
2022-11-25T11:24:38.056Z,19.84
2022-11-25T11:27:25.012Z,19.84
2022-11-25T11:30:15.846Z,19.82
2022-11-25T11:33:25.266Z,19.83
2022-11-25T11:36:18.884Z,19.85
2022-11-25T11:39:26.514Z,19.83
2022-11-25T11:42:40.225Z,19.86
2022-11-25T11:45:25.556Z,19.88
2022-11-25T11:48:29.886Z,19.90
2022-11-25T11:51:55.547Z,19.96
2022-11-25T11:54:46.416Z,19.99
2022-11-25T11:57:48.415Z,20.01
2022-11-25T12:00:46.032Z,20.05
2022-11-25T12:03:39.078Z,20.09
2022-11-25T12:06:28.721Z,20.12
2022-11-25T12:09:20.873Z,20.17
2022-11-25T12:12:13.876Z,20.23
2022-11-25T12:15:03.232Z,20.25
2022-11-25T13:28:04.599Z,20.75
2022-11-25T13:30:52.712Z,20.77
2022-11-25T13:33:44.788Z,20.77
2022-11-25T13:36:51.905Z,20.78
2022-11-25T13:39:38.734Z,20.82
2022-11-25T13:42:26.624Z,20.82
2022-11-25T13:45:32.751Z,20.82
2022-11-25T13:48:29.459Z,20.82
2022-11-25T13:51:22.957Z,20.84
2022-11-25T13:54:18.196Z,20.84
2022-11-25T13:57:12.454Z,20.84
2022-11-25T13:59:58.117Z,20.83
2022-11-25T14:02:45.634Z,20.84
2022-11-25T14:05:56.221Z,20.84
2022-11-25T14:08:45.783Z,20.87
2022-11-25T14:11:56.808Z,20.87
2022-11-25T14:15:00.489Z,20.90
2022-11-25T14:18:01.544Z,20.88
2022-11-25T14:20:52.937Z,20.87
2022-11-25T14:24:21.231Z,20.88
2022-11-25T14:27:15.883Z,20.92
2022-11-25T14:30:08.293Z,20.91
2022-11-25T14:33:02.529Z,20.92
2022-11-25T14:35:52.200Z,20.92
2022-11-25T14:38:45.338Z,20.93
2022-11-25T14:41:37.191Z,20.95
2022-11-25T14:44:28.164Z,20.96
2022-11-25T14:47:13.893Z,20.96
2022-11-25T14:50:33.013Z,20.97
2022-11-25T14:53:11.977Z,21.01
2022-11-25T14:56:00.265Z,21.02
2022-11-25T14:58:48.584Z,21.03
2022-11-25T15:01:35.882Z,21.03
2022-11-25T15:04:24.066Z,21.03
2022-11-25T15:07:18.503Z,21.04
2022-11-25T15:10:04.473Z,21.05
2022-11-25T15:12:53.738Z,21.06
2022-11-25T15:15:39.276Z,21.07
2022-11-25T15:18:25.955Z,21.08
2022-11-25T15:21:14.942Z,21.12
2022-11-25T15:24:01.553Z,21.14
2022-11-25T15:26:51.685Z,21.17
2022-11-25T15:29:42.419Z,21.19
2022-11-25T15:32:31.903Z,21.21
2022-11-25T15:35:21.330Z,21.22
2022-11-25T15:38:43.494Z,21.22
2022-11-25T15:41:36.841Z,21.23
2022-11-25T15:44:24.785Z,21.25
2022-11-25T15:47:23.548Z,21.27
2022-11-25T15:50:22.926Z,21.30
2022-11-25T15:53:10.778Z,21.32
2022-11-25T15:56:01.122Z,21.33
2022-11-25T15:58:46.690Z,21.36
2022-11-25T16:01:31.977Z,21.35
2022-11-25T16:04:21.423Z,21.35
2022-11-25T16:07:23.640Z,21.33
2022-11-25T16:10:24.217Z,21.33
2022-11-25T16:13:22.948Z,21.31
2022-11-25T16:16:14.945Z,21.32
2022-11-25T16:19:09.933Z,21.31
2022-11-25T16:22:01.060Z,21.32
2022-11-25T16:24:55.945Z,21.31
2022-11-25T16:27:45.327Z,21.31
2022-11-25T16:30:30.669Z,21.31
2022-11-25T16:33:15.800Z,21.30
2022-11-25T16:36:03.205Z,21.30
2022-11-25T16:38:54.385Z,21.30
2022-11-25T16:41:42.093Z,21.28
2022-11-25T16:44:29.131Z,21.29
2022-11-25T16:47:15.392Z,21.28
2022-11-25T16:50:01.158Z,21.29
2022-11-25T16:52:46.505Z,21.27
2022-11-25T16:55:32.251Z,21.29
2022-11-25T16:58:25.419Z,21.28
2022-11-25T17:01:12.886Z,21.27
2022-11-25T17:03:58.267Z,21.27
2022-11-25T17:06:50.581Z,21.28
2022-11-25T17:09:49.475Z,21.28
2022-11-25T17:12:36.128Z,21.26
2022-11-25T17:15:32.340Z,21.27
2022-11-25T17:18:20.069Z,21.28
2022-11-25T17:21:05.827Z,21.29
2022-11-25T17:23:55.129Z,21.27
2022-11-25T17:26:42.889Z,21.25
2022-11-25T17:29:35.715Z,21.24
2022-11-25T17:32:21.506Z,21.25
2022-11-25T17:35:17.704Z,21.23
2022-11-25T17:38:14.256Z,21.21
2022-11-25T17:40:59.744Z,21.18
2022-11-25T17:43:47.605Z,21.20
2022-11-25T17:46:33.839Z,21.22
2022-11-25T17:49:21.087Z,21.23
2022-11-25T17:52:06.543Z,21.13
2022-11-25T17:54:52.074Z,21.08
2022-11-25T17:57:37.775Z,21.05
2022-11-25T18:00:23.557Z,21.03
2022-11-25T18:03:13.256Z,21.00
2022-11-25T18:05:58.604Z,20.96
2022-11-25T18:08:43.988Z,20.94
2022-11-25T18:11:29.451Z,20.97
2022-11-25T18:14:22.138Z,21.02
2022-11-25T18:17:08.537Z,21.06
2022-11-25T18:19:55.805Z,21.04
2022-11-25T18:22:45.467Z,21.03
2022-11-25T18:25:33.228Z,21.04
2022-11-25T18:28:25.173Z,21.00
2022-11-25T18:31:11.554Z,21.02
2022-11-25T18:33:57.065Z,21.01
2022-11-25T18:36:43.190Z,21.03
2022-11-25T18:39:28.871Z,21.03
2022-11-25T18:42:28.218Z,21.02
2022-11-25T18:45:22.662Z,21.07
2022-11-25T18:48:28.460Z,21.05
2022-11-25T18:51:14.943Z,21.04
2022-11-25T18:54:00.408Z,21.03
2022-11-25T18:56:49.904Z,21.03
2022-11-25T18:59:37.802Z,21.01
2022-11-25T19:02:23.272Z,21.03
2022-11-25T19:05:21.520Z,21.02
2022-11-25T19:08:07.327Z,21.00
2022-11-25T19:10:53.432Z,21.00
2022-11-25T19:13:38.960Z,21.02
2022-11-25T19:16:25.280Z,21.02
2022-11-25T19:19:15.707Z,21.03
2022-11-25T19:22:01.595Z,21.01
2022-11-25T19:24:47.497Z,21.01
2022-11-25T19:27:38.124Z,21.00
2022-11-25T19:30:27.433Z,21.00
2022-11-25T19:33:26.593Z,20.97
2022-11-25T19:36:24.430Z,20.95
2022-11-25T19:39:16.820Z,20.95
2022-11-25T19:42:01.929Z,20.93
2022-11-25T19:44:47.497Z,20.91
2022-11-25T19:47:33.051Z,20.90
2022-11-25T19:50:28.885Z,20.88
2022-11-25T19:53:17.780Z,20.83
2022-11-25T19:56:04.848Z,20.80
2022-11-25T19:58:51.069Z,20.77
2022-11-25T20:04:24.411Z,20.72
2022-11-25T20:07:15.006Z,20.70
2022-11-25T20:10:17.710Z,20.68
2022-11-25T20:13:02.928Z,20.64
2022-11-25T20:15:48.577Z,20.63
2022-11-25T20:18:34.549Z,20.61
2022-11-25T20:21:32.171Z,20.58
2022-11-25T20:24:20.533Z,20.58
2022-11-25T20:27:06.076Z,20.55
2022-11-25T20:29:51.500Z,20.55
2022-11-25T20:32:36.914Z,20.51
2022-11-25T20:35:23.194Z,20.47
2022-11-25T20:38:36.165Z,20.49
2022-11-25T20:41:27.680Z,20.46
2022-11-25T20:44:13.899Z,20.46
2022-11-25T20:46:59.415Z,20.44
2022-11-25T20:49:46.531Z,20.45
2022-11-25T20:52:33.377Z,20.43
2022-11-25T20:55:23.626Z,20.42
2022-11-25T20:58:28.027Z,20.40
2022-11-25T21:01:15.020Z,20.38
2022-11-25T21:04:00.195Z,20.36
2022-11-25T21:06:46.050Z,20.35
2022-11-25T21:09:34.601Z,20.34
2022-11-25T21:12:20.119Z,20.32
2022-11-25T21:15:16.935Z,20.31
2022-11-25T21:18:02.236Z,20.29
2022-11-25T21:20:49.393Z,20.28
2022-11-25T21:23:37.389Z,20.28
2022-11-25T21:26:25.328Z,20.28
2022-11-25T21:29:15.548Z,20.27
2022-11-25T21:32:01.287Z,20.26
2022-11-25T21:34:46.574Z,20.24
2022-11-25T21:37:37.804Z,20.24
2022-11-25T21:40:46.035Z,20.22
2022-11-25T21:43:39.859Z,20.21
2022-11-25T21:46:26.026Z,20.19
2022-11-25T21:49:11.904Z,20.16
2022-11-25T21:51:57.140Z,20.17
2022-11-25T21:54:43.124Z,20.15
2022-11-25T21:57:29.139Z,20.16
2022-11-25T22:00:20.076Z,20.15
2022-11-25T22:03:14.630Z,20.14
2022-11-25T22:05:59.807Z,20.14
2022-11-25T22:08:45.243Z,20.11
2022-11-25T22:11:33.512Z,20.13
2022-11-25T22:14:18.645Z,20.12
2022-11-25T22:17:13.091Z,20.08
2022-11-25T22:19:58.810Z,20.10
2022-11-25T22:22:44.174Z,20.09
2022-11-25T22:25:32.435Z,20.09
2022-11-25T22:28:20.377Z,20.08
2022-11-25T22:31:08.440Z,20.08
2022-11-25T22:33:54.592Z,20.05
2022-11-25T22:36:40.976Z,20.05
2022-11-25T22:39:26.836Z,20.04
2022-11-25T22:42:30.972Z,20.03
2022-11-25T22:45:44.199Z,20.03
2022-11-25T22:48:34.775Z,20.03
2022-11-25T22:51:27.257Z,20.01
2022-11-25T22:54:12.812Z,20.02
2022-11-25T22:56:58.418Z,20.01
2022-11-25T22:59:44.028Z,20.01
2022-11-25T23:02:34.034Z,20.00
2022-11-25T23:05:32.180Z,19.99
2022-11-25T23:08:21.344Z,19.98
2022-11-25T23:11:06.944Z,19.98
2022-11-25T23:13:52.352Z,19.96
2022-11-25T23:16:39.561Z,19.97
2022-11-25T23:19:25.036Z,19.95
2022-11-25T23:22:13.744Z,19.96
2022-11-25T23:24:59.220Z,19.96
2022-11-25T23:27:45.496Z,19.96
2022-11-25T23:30:31.370Z,19.94
2022-11-25T23:33:38.653Z,19.94
2022-11-25T23:36:41.704Z,19.93
2022-11-25T23:39:27.349Z,19.93
2022-11-25T23:42:19.897Z,19.91
2022-11-25T23:45:08.995Z,19.91
2022-11-25T23:47:56.162Z,19.92
2022-11-25T23:50:42.100Z,19.92
2022-11-25T23:53:32.995Z,19.91
2022-11-25T23:56:19.330Z,19.92
2022-11-25T23:59:12.792Z,19.92
